Terminal Aerodrome Forecast
Issued by NWS

Home | Current Version | Previous Version | Text Only | Print | Product List | Glossary On
Versions: 1 2 3 4 5 6 7 8 9 10 11 12 13 14 15
000
FTUS42 TJSJ 170500 RRA
TAFKPK
TAF
TKPK 170544Z 1706/1806 05010KT P6SM SCT020 SCT040
     FM171400 12015KT P6SM FEW020 SCT050
     FM172330 07008KT P6SM FEW020 SCT050
      AMD NOT SKED TIL 171200=

USA.gov is the U.S. government's official web portal to all federal, state and local government web resources and services.